sensor_id;sensor_type;location;lat;lon;timestamp;temperature;humidity
18309;DHT22;9280;50.276;18.650;2022-08-19T00:00:10;22.40;99.90
18309;DHT22;9280;50.276;18.650;2022-08-19T00:02:58;22.30;99.90
18309;DHT22;9280;50.276;18.650;2022-08-19T00:05:45;22.30;99.90
18309;DHT22;9280;50.276;18.650;2022-08-19T00:08:31;22.30;99.90
18309;DHT22;9280;50.276;18.650;2022-08-19T00:11:17;22.30;99.90
18309;DHT22;9280;50.276;18.650;2022-08-19T00:14:05;22.30;99.90
18309;DHT22;9280;50.276;18.650;2022-08-19T00:16:52;22.20;99.90
18309;DHT22;9280;50.276;18.650;2022-08-19T00:19:39;22.20;99.90
18309;DHT22;9280;50.276;18.650;2022-08-19T00:22:27;22.20;99.90
18309;DHT22;9280;50.276;18.650;2022-08-19T00:25:15;22.10;99.90
18309;DHT22;9280;50.276;18.650;2022-08-19T00:28:02;22.10;99.90
18309;DHT22;9280;50.276;18.650;2022-08-19T00:30:49;22.10;99.90
18309;DHT22;9280;50.276;18.650;2022-08-19T00:33:36;22.00;99.90
18309;DHT22;9280;50.276;18.650;2022-08-19T00:36:23;22.00;99.90
18309;DHT22;9280;50.276;18.650;2022-08-19T00:39:10;21.90;99.90
18309;DHT22;9280;50.276;18.650;2022-08-19T00:41:57;21.90;99.90
18309;DHT22;9280;50.276;18.650;2022-08-19T00:44:43;21.80;99.90
18309;DHT22;9280;50.276;18.650;2022-08-19T00:47:29;21.80;99.90
18309;DHT22;9280;50.276;18.650;2022-08-19T00:50:18;21.80;99.90
18309;DHT22;9280;50.276;18.650;2022-08-19T00:53:06;21.70;99.90
18309;DHT22;9280;50.276;18.650;2022-08-19T00:55:56;21.70;99.90
18309;DHT22;9280;50.276;18.650;2022-08-19T00:58:43;21.60;99.90
18309;DHT22;9280;50.276;18.650;2022-08-19T01:01:30;21.60;99.90
18309;DHT22;9280;50.276;18.650;2022-08-19T01:04:16;21.50;99.90
18309;DHT22;9280;50.276;18.650;2022-08-19T01:07:02;21.50;99.90
18309;DHT22;9280;50.276;18.650;2022-08-19T01:09:49;21.50;99.90
18309;DHT22;9280;50.276;18.650;2022-08-19T01:12:36;21.40;99.90
18309;DHT22;9280;50.276;18.650;2022-08-19T01:15:26;21.40;99.90
18309;DHT22;9280;50.276;18.650;2022-08-19T01:18:15;21.40;99.90
18309;DHT22;9280;50.276;18.650;2022-08-19T01:21:05;21.40;99.90
18309;DHT22;9280;50.276;18.650;2022-08-19T01:23:54;21.30;99.90
18309;DHT22;9280;50.276;18.650;2022-08-19T01:26:44;21.30;99.90
18309;DHT22;9280;50.276;18.650;2022-08-19T01:29:30;21.30;99.90
18309;DHT22;9280;50.276;18.650;2022-08-19T01:32:17;21.30;99.90
18309;DHT22;9280;50.276;18.650;2022-08-19T01:35:04;21.20;99.90
18309;DHT22;9280;50.276;18.650;2022-08-19T01:37:54;21.20;99.90
18309;DHT22;9280;50.276;18.650;2022-08-19T01:40:41;21.20;99.90
18309;DHT22;9280;50.276;18.650;2022-08-19T01:43:28;21.20;99.90
18309;DHT22;9280;50.276;18.650;2022-08-19T01:46:13;21.20;99.90
18309;DHT22;9280;50.276;18.650;2022-08-19T01:49:00;21.20;99.90
18309;DHT22;9280;50.276;18.650;2022-08-19T01:51:46;21.20;99.90
18309;DHT22;9280;50.276;18.650;2022-08-19T01:54:32;21.10;99.90
18309;DHT22;9280;50.276;18.650;2022-08-19T01:57:20;21.10;99.90
18309;DHT22;9280;50.276;18.650;2022-08-19T02:00:10;21.10;99.90
18309;DHT22;9280;50.276;18.650;2022-08-19T02:02:58;21.10;99.90
18309;DHT22;9280;50.276;18.650;2022-08-19T02:05:45;21.00;99.90
18309;DHT22;9280;50.276;18.650;2022-08-19T02:08:35;21.00;99.90
18309;DHT22;9280;50.276;18.650;2022-08-19T02:11:24;21.00;99.90
18309;DHT22;9280;50.276;18.650;2022-08-19T02:14:12;21.00;99.90
18309;DHT22;9280;50.276;18.650;2022-08-19T02:16:58;21.00;99.90
18309;DHT22;9280;50.276;18.650;2022-08-19T02:19:45;21.00;99.90
18309;DHT22;9280;50.276;18.650;2022-08-19T02:22:33;20.90;99.90
18309;DHT22;9280;50.276;18.650;2022-08-19T02:25:20;20.90;99.90
18309;DHT22;9280;50.276;18.650;2022-08-19T02:28:07;20.90;99.90
18309;DHT22;9280;50.276;18.650;2022-08-19T02:30:57;20.90;99.90
18309;DHT22;9280;50.276;18.650;2022-08-19T02:33:45;20.90;99.90
18309;DHT22;9280;50.276;18.650;2022-08-19T02:36:31;20.80;99.90
18309;DHT22;9280;50.276;18.650;2022-08-19T02:39:18;20.80;99.90
18309;DHT22;9280;50.276;18.650;2022-08-19T02:42:03;20.80;99.90
18309;DHT22;9280;50.276;18.650;2022-08-19T02:44:49;20.80;99.90
18309;DHT22;9280;50.276;18.650;2022-08-19T02:47:38;20.80;99.90
18309;DHT22;9280;50.276;18.650;2022-08-19T02:50:24;20.70;99.90
18309;DHT22;9280;50.276;18.650;2022-08-19T02:53:10;20.80;99.90
18309;DHT22;9280;50.276;18.650;2022-08-19T02:55:57;20.70;99.90
18309;DHT22;9280;50.276;18.650;2022-08-19T02:58:44;20.70;99.90
18309;DHT22;9280;50.276;18.650;2022-08-19T03:01:31;20.70;99.90
18309;DHT22;9280;50.276;18.650;2022-08-19T03:04:19;20.70;99.90
18309;DHT22;9280;50.276;18.650;2022-08-19T03:07:06;20.60;99.90
18309;DHT22;9280;50.276;18.650;2022-08-19T03:09:51;20.60;99.90
18309;DHT22;9280;50.276;18.650;2022-08-19T03:12:38;20.60;99.90
18309;DHT22;9280;50.276;18.650;2022-08-19T03:15:24;20.60;99.90
18309;DHT22;9280;50.276;18.650;2022-08-19T03:18:11;20.60;99.90
18309;DHT22;9280;50.276;18.650;2022-08-19T03:20:59;20.50;99.90
18309;DHT22;9280;50.276;18.650;2022-08-19T03:23:45;20.50;99.90
18309;DHT22;9280;50.276;18.650;2022-08-19T03:26:31;20.50;99.90
18309;DHT22;9280;50.276;18.650;2022-08-19T03:29:19;20.60;99.90
18309;DHT22;9280;50.276;18.650;2022-08-19T03:32:06;20.50;99.90
18309;DHT22;9280;50.276;18.650;2022-08-19T03:34:52;20.50;99.90
18309;DHT22;9280;50.276;18.650;2022-08-19T03:37:40;20.50;99.90
18309;DHT22;9280;50.276;18.650;2022-08-19T03:40:26;20.50;99.90
18309;DHT22;9280;50.276;18.650;2022-08-19T03:43:14;20.50;99.90
18309;DHT22;9280;50.276;18.650;2022-08-19T03:46:04;20.50;99.90
18309;DHT22;9280;50.276;18.650;2022-08-19T03:48:53;20.50;99.90
18309;DHT22;9280;50.276;18.650;2022-08-19T03:51:41;20.50;99.90
18309;DHT22;9280;50.276;18.650;2022-08-19T03:54:29;20.50;99.90
18309;DHT22;9280;50.276;18.650;2022-08-19T03:57:15;20.50;99.90
18309;DHT22;9280;50.276;18.650;2022-08-19T04:00:03;20.50;99.90
18309;DHT22;9280;50.276;18.650;2022-08-19T04:02:51;20.60;99.90
18309;DHT22;9280;50.276;18.650;2022-08-19T04:05:37;20.60;99.90
18309;DHT22;9280;50.276;18.650;2022-08-19T04:08:23;20.60;99.90
18309;DHT22;9280;50.276;18.650;2022-08-19T04:11:13;20.70;99.90
18309;DHT22;9280;50.276;18.650;2022-08-19T04:14:01;20.80;99.90
18309;DHT22;9280;50.276;18.650;2022-08-19T04:16:48;20.90;99.90
18309;DHT22;9280;50.276;18.650;2022-08-19T04:19:35;21.00;99.90
18309;DHT22;9280;50.276;18.650;2022-08-19T04:22:22;21.20;99.90
18309;DHT22;9280;50.276;18.650;2022-08-19T04:25:08;21.20;99.90
18309;DHT22;9280;50.276;18.650;2022-08-19T04:27:56;21.30;99.90
18309;DHT22;9280;50.276;18.650;2022-08-19T04:30:44;21.30;99.90
18309;DHT22;9280;50.276;18.650;2022-08-19T04:33:32;21.40;99.90
18309;DHT22;9280;50.276;18.650;2022-08-19T04:36:19;21.50;99.90
18309;DHT22;9280;50.276;18.650;2022-08-19T04:39:09;21.50;99.90
18309;DHT22;9280;50.276;18.650;2022-08-19T04:41:56;21.60;99.90
18309;DHT22;9280;50.276;18.650;2022-08-19T04:45:01;21.70;99.90
18309;DHT22;9280;50.276;18.650;2022-08-19T04:47:48;21.80;99.90
18309;DHT22;9280;50.276;18.650;2022-08-19T04:50:35;21.90;99.90
18309;DHT22;9280;50.276;18.650;2022-08-19T04:53:21;21.90;99.90
18309;DHT22;9280;50.276;18.650;2022-08-19T04:56:09;22.00;99.90
18309;DHT22;9280;50.276;18.650;2022-08-19T04:58:56;22.00;99.90
18309;DHT22;9280;50.276;18.650;2022-08-19T05:01:44;22.10;99.90
18309;DHT22;9280;50.276;18.650;2022-08-19T05:04:34;22.10;99.90
18309;DHT22;9280;50.276;18.650;2022-08-19T05:07:23;22.20;99.90
18309;DHT22;9280;50.276;18.650;2022-08-19T05:10:09;22.20;99.90
18309;DHT22;9280;50.276;18.650;2022-08-19T05:12:56;22.30;99.90
18309;DHT22;9280;50.276;18.650;2022-08-19T05:15:42;22.40;99.90
18309;DHT22;9280;50.276;18.650;2022-08-19T05:18:30;22.50;99.90
18309;DHT22;9280;50.276;18.650;2022-08-19T05:21:34;22.50;99.90
18309;DHT22;9280;50.276;18.650;2022-08-19T05:24:38;22.60;99.90
18309;DHT22;9280;50.276;18.650;2022-08-19T05:27:24;22.70;99.90
18309;DHT22;9280;50.276;18.650;2022-08-19T05:30:11;22.80;99.90
18309;DHT22;9280;50.276;18.650;2022-08-19T05:32:57;22.90;99.90
18309;DHT22;9280;50.276;18.650;2022-08-19T05:35:45;22.90;99.90
18309;DHT22;9280;50.276;18.650;2022-08-19T05:38:33;23.10;99.90
18309;DHT22;9280;50.276;18.650;2022-08-19T05:41:22;23.10;99.90
18309;DHT22;9280;50.276;18.650;2022-08-19T05:44:15;23.20;99.90
18309;DHT22;9280;50.276;18.650;2022-08-19T05:47:03;23.20;99.90
18309;DHT22;9280;50.276;18.650;2022-08-19T05:49:49;23.40;99.90
18309;DHT22;9280;50.276;18.650;2022-08-19T05:52:38;23.40;99.90
18309;DHT22;9280;50.276;18.650;2022-08-19T05:55:24;23.50;99.90
18309;DHT22;9280;50.276;18.650;2022-08-19T05:58:10;23.60;99.90
18309;DHT22;9280;50.276;18.650;2022-08-19T06:00:56;23.70;99.90
18309;DHT22;9280;50.276;18.650;2022-08-19T06:03:43;23.80;99.90
18309;DHT22;9280;50.276;18.650;2022-08-19T06:06:29;23.90;99.90
18309;DHT22;9280;50.276;18.650;2022-08-19T06:09:16;24.00;99.90
18309;DHT22;9280;50.276;18.650;2022-08-19T06:12:03;24.00;99.90
18309;DHT22;9280;50.276;18.650;2022-08-19T06:14:49;24.10;99.90
18309;DHT22;9280;50.276;18.650;2022-08-19T06:17:38;24.30;99.90
18309;DHT22;9280;50.276;18.650;2022-08-19T06:20:26;24.40;99.90
18309;DHT22;9280;50.276;18.650;2022-08-19T06:23:12;24.50;99.90
18309;DHT22;9280;50.276;18.650;2022-08-19T06:26:00;24.60;99.90
18309;DHT22;9280;50.276;18.650;2022-08-19T06:28:46;24.80;99.90
18309;DHT22;9280;50.276;18.650;2022-08-19T06:31:35;24.90;99.90
18309;DHT22;9280;50.276;18.650;2022-08-19T06:34:21;25.00;99.90
18309;DHT22;9280;50.276;18.650;2022-08-19T06:37:08;25.10;99.90
18309;DHT22;9280;50.276;18.650;2022-08-19T06:39:54;25.10;99.90
18309;DHT22;9280;50.276;18.650;2022-08-19T06:42:41;25.30;99.90
18309;DHT22;9280;50.276;18.650;2022-08-19T06:45:27;25.40;99.90
18309;DHT22;9280;50.276;18.650;2022-08-19T06:48:13;25.60;99.90
18309;DHT22;9280;50.276;18.650;2022-08-19T06:50:59;25.70;99.90
18309;DHT22;9280;50.276;18.650;2022-08-19T06:53:45;25.80;99.90
18309;DHT22;9280;50.276;18.650;2022-08-19T06:56:31;26.00;99.90
18309;DHT22;9280;50.276;18.650;2022-08-19T06:59:21;26.10;99.90
18309;DHT22;9280;50.276;18.650;2022-08-19T07:02:11;26.30;99.90
18309;DHT22;9280;50.276;18.650;2022-08-19T07:04:58;26.40;99.90
18309;DHT22;9280;50.276;18.650;2022-08-19T07:07:47;26.50;99.90
18309;DHT22;9280;50.276;18.650;2022-08-19T07:10:33;26.60;99.90
18309;DHT22;9280;50.276;18.650;2022-08-19T07:13:21;26.70;99.90
18309;DHT22;9280;50.276;18.650;2022-08-19T07:16:11;26.80;99.20
18309;DHT22;9280;50.276;18.650;2022-08-19T07:19:00;26.90;99.10
18309;DHT22;9280;50.276;18.650;2022-08-19T07:21:47;27.00;98.80
18309;DHT22;9280;50.276;18.650;2022-08-19T07:24:35;27.10;98.60
18309;DHT22;9280;50.276;18.650;2022-08-19T07:27:21;27.20;98.00
18309;DHT22;9280;50.276;18.650;2022-08-19T07:30:09;27.30;98.00
18309;DHT22;9280;50.276;18.650;2022-08-19T07:32:58;27.50;97.40
18309;DHT22;9280;50.276;18.650;2022-08-19T07:35:44;27.60;96.90
18309;DHT22;9280;50.276;18.650;2022-08-19T07:38:30;27.70;95.90
18309;DHT22;9280;50.276;18.650;2022-08-19T07:41:19;27.80;95.60
18309;DHT22;9280;50.276;18.650;2022-08-19T07:44:06;27.90;94.80
18309;DHT22;9280;50.276;18.650;2022-08-19T07:46:55;28.00;94.80
18309;DHT22;9280;50.276;18.650;2022-08-19T07:49:43;28.20;94.50
18309;DHT22;9280;50.276;18.650;2022-08-19T07:52:29;28.40;94.10
18309;DHT22;9280;50.276;18.650;2022-08-19T07:55:18;28.50;93.60
18309;DHT22;9280;50.276;18.650;2022-08-19T07:58:04;28.60;92.60
18309;DHT22;9280;50.276;18.650;2022-08-19T08:00:51;28.70;91.50
18309;DHT22;9280;50.276;18.650;2022-08-19T08:03:37;28.60;90.10
18309;DHT22;9280;50.276;18.650;2022-08-19T08:06:42;28.80;89.30
18309;DHT22;9280;50.276;18.650;2022-08-19T08:09:46;29.00;89.40
18309;DHT22;9280;50.276;18.650;2022-08-19T08:12:36;29.20;88.80
18309;DHT22;9280;50.276;18.650;2022-08-19T08:15:26;29.40;88.90
18309;DHT22;9280;50.276;18.650;2022-08-19T08:18:12;29.60;87.30
18309;DHT22;9280;50.276;18.650;2022-08-19T08:20:58;29.80;86.40
18309;DHT22;9280;50.276;18.650;2022-08-19T08:23:46;29.80;82.20
18309;DHT22;9280;50.276;18.650;2022-08-19T08:26:32;30.00;77.90
18309;DHT22;9280;50.276;18.650;2022-08-19T08:29:18;30.10;73.70
18309;DHT22;9280;50.276;18.650;2022-08-19T08:32:05;30.40;71.20
18309;DHT22;9280;50.276;18.650;2022-08-19T08:34:52;30.30;67.20
18309;DHT22;9280;50.276;18.650;2022-08-19T08:37:39;30.40;66.00
18309;DHT22;9280;50.276;18.650;2022-08-19T08:40:33;30.30;64.20
18309;DHT22;9280;50.276;18.650;2022-08-19T08:43:27;30.40;64.00
18309;DHT22;9280;50.276;18.650;2022-08-19T08:46:16;30.70;63.10
18309;DHT22;9280;50.276;18.650;2022-08-19T08:49:15;30.90;63.10
18309;DHT22;9280;50.276;18.650;2022-08-19T08:52:07;31.20;60.80
18309;DHT22;9280;50.276;18.650;2022-08-19T08:54:58;31.40;58.70
18309;DHT22;9280;50.276;18.650;2022-08-19T08:57:51;31.40;59.20
18309;DHT22;9280;50.276;18.650;2022-08-19T09:00:42;31.60;57.00
18309;DHT22;9280;50.276;18.650;2022-08-19T09:03:30;31.60;56.30
18309;DHT22;9280;50.276;18.650;2022-08-19T09:06:23;31.80;56.20
18309;DHT22;9280;50.276;18.650;2022-08-19T09:09:14;31.80;55.30
18309;DHT22;9280;50.276;18.650;2022-08-19T09:12:09;31.80;55.60
18309;DHT22;9280;50.276;18.650;2022-08-19T09:15:01;31.80;55.70
18309;DHT22;9280;50.276;18.650;2022-08-19T09:17:48;32.10;56.00
18309;DHT22;9280;50.276;18.650;2022-08-19T09:20:35;32.10;56.50
18309;DHT22;9280;50.276;18.650;2022-08-19T09:23:21;32.10;56.00
18309;DHT22;9280;50.276;18.650;2022-08-19T09:26:09;31.90;56.50
18309;DHT22;9280;50.276;18.650;2022-08-19T09:28:58;32.00;56.30
18309;DHT22;9280;50.276;18.650;2022-08-19T09:31:47;32.10;57.10
18309;DHT22;9280;50.276;18.650;2022-08-19T09:34:33;32.10;56.30
18309;DHT22;9280;50.276;18.650;2022-08-19T09:37:20;32.00;56.20
18309;DHT22;9280;50.276;18.650;2022-08-19T09:40:07;32.20;57.10
18309;DHT22;9280;50.276;18.650;2022-08-19T09:42:55;32.00;57.20
18309;DHT22;9280;50.276;18.650;2022-08-19T09:45:42;32.00;57.10
18309;DHT22;9280;50.276;18.650;2022-08-19T09:48:29;32.00;57.00
18309;DHT22;9280;50.276;18.650;2022-08-19T09:51:17;32.30;56.80
18309;DHT22;9280;50.276;18.650;2022-08-19T09:54:04;32.30;55.90
18309;DHT22;9280;50.276;18.650;2022-08-19T09:56:50;32.40;55.30
18309;DHT22;9280;50.276;18.650;2022-08-19T09:59:38;32.30;55.10
18309;DHT22;9280;50.276;18.650;2022-08-19T10:02:24;32.30;54.80
18309;DHT22;9280;50.276;18.650;2022-08-19T10:05:12;32.20;56.00
18309;DHT22;9280;50.276;18.650;2022-08-19T10:08:17;32.30;55.60
18309;DHT22;9280;50.276;18.650;2022-08-19T10:11:04;32.50;54.20
18309;DHT22;9280;50.276;18.650;2022-08-19T10:13:50;32.50;54.10
18309;DHT22;9280;50.276;18.650;2022-08-19T10:16:36;32.70;54.30
18309;DHT22;9280;50.276;18.650;2022-08-19T10:19:23;32.70;52.60
18309;DHT22;9280;50.276;18.650;2022-08-19T10:22:11;33.20;52.40
18309;DHT22;9280;50.276;18.650;2022-08-19T10:24:59;33.40;52.40
18309;DHT22;9280;50.276;18.650;2022-08-19T10:27:45;33.60;50.00
18309;DHT22;9280;50.276;18.650;2022-08-19T10:30:31;33.40;50.50
18309;DHT22;9280;50.276;18.650;2022-08-19T10:33:18;33.40;50.60
18309;DHT22;9280;50.276;18.650;2022-08-19T10:36:06;33.40;50.80
18309;DHT22;9280;50.276;18.650;2022-08-19T10:38:55;33.30;51.20
18309;DHT22;9280;50.276;18.650;2022-08-19T10:41:43;33.20;51.40
18309;DHT22;9280;50.276;18.650;2022-08-19T10:44:28;33.30;51.60
18309;DHT22;9280;50.276;18.650;2022-08-19T10:47:14;33.30;51.10
18309;DHT22;9280;50.276;18.650;2022-08-19T10:50:00;33.40;52.10
18309;DHT22;9280;50.276;18.650;2022-08-19T10:53:05;33.60;51.60
18309;DHT22;9280;50.276;18.650;2022-08-19T10:55:54;33.50;51.50
18309;DHT22;9280;50.276;18.650;2022-08-19T10:58:57;33.40;51.20
18309;DHT22;9280;50.276;18.650;2022-08-19T11:01:45;33.50;50.90
18309;DHT22;9280;50.276;18.650;2022-08-19T11:04:31;33.80;50.00
18309;DHT22;9280;50.276;18.650;2022-08-19T11:07:17;34.30;48.60
18309;DHT22;9280;50.276;18.650;2022-08-19T11:10:04;34.90;47.80
18309;DHT22;9280;50.276;18.650;2022-08-19T11:12:51;35.40;46.90
18309;DHT22;9280;50.276;18.650;2022-08-19T11:15:39;35.60;45.80
18309;DHT22;9280;50.276;18.650;2022-08-19T11:18:24;35.70;45.40
18309;DHT22;9280;50.276;18.650;2022-08-19T11:21:13;35.80;44.40
18309;DHT22;9280;50.276;18.650;2022-08-19T11:24:01;36.00;43.90
18309;DHT22;9280;50.276;18.650;2022-08-19T11:26:48;35.90;43.20
18309;DHT22;9280;50.276;18.650;2022-08-19T11:29:38;35.70;42.80
18309;DHT22;9280;50.276;18.650;2022-08-19T11:32:24;35.80;43.40
18309;DHT22;9280;50.276;18.650;2022-08-19T11:35:10;36.00;41.50
18309;DHT22;9280;50.276;18.650;2022-08-19T11:37:56;36.30;40.90
18309;DHT22;9280;50.276;18.650;2022-08-19T11:40:43;36.20;40.20
18309;DHT22;9280;50.276;18.650;2022-08-19T11:43:30;36.40;40.20
18309;DHT22;9280;50.276;18.650;2022-08-19T11:46:17;36.10;40.70
18309;DHT22;9280;50.276;18.650;2022-08-19T11:49:05;36.00;41.10
18309;DHT22;9280;50.276;18.650;2022-08-19T11:51:53;35.80;41.10
18309;DHT22;9280;50.276;18.650;2022-08-19T11:54:39;35.30;40.70
18309;DHT22;9280;50.276;18.650;2022-08-19T11:57:25;35.30;41.30
18309;DHT22;9280;50.276;18.650;2022-08-19T12:00:12;35.10;41.20
18309;DHT22;9280;50.276;18.650;2022-08-19T12:02:59;35.10;41.60
18309;DHT22;9280;50.276;18.650;2022-08-19T12:05:45;34.70;42.20
18309;DHT22;9280;50.276;18.650;2022-08-19T12:08:30;34.70;42.80
18309;DHT22;9280;50.276;18.650;2022-08-19T12:11:19;34.80;41.40
18309;DHT22;9280;50.276;18.650;2022-08-19T12:14:06;35.10;40.30
18309;DHT22;9280;50.276;18.650;2022-08-19T12:16:52;35.50;39.80
18309;DHT22;9280;50.276;18.650;2022-08-19T12:19:39;35.80;39.70
18309;DHT22;9280;50.276;18.650;2022-08-19T12:22:24;36.00;39.60
18309;DHT22;9280;50.276;18.650;2022-08-19T12:25:11;36.30;39.20
18309;DHT22;9280;50.276;18.650;2022-08-19T12:27:58;36.30;39.40
18309;DHT22;9280;50.276;18.650;2022-08-19T12:30:44;36.30;38.80
18309;DHT22;9280;50.276;18.650;2022-08-19T12:33:30;36.40;38.20
18309;DHT22;9280;50.276;18.650;2022-08-19T12:36:17;36.60;37.00
18309;DHT22;9280;50.276;18.650;2022-08-19T12:39:03;36.60;37.00
18309;DHT22;9280;50.276;18.650;2022-08-19T12:41:50;37.00;37.30
18309;DHT22;9280;50.276;18.650;2022-08-19T12:44:38;37.10;36.20
18309;DHT22;9280;50.276;18.650;2022-08-19T12:47:24;37.20;36.00
18309;DHT22;9280;50.276;18.650;2022-08-19T12:50:11;37.10;36.10
18309;DHT22;9280;50.276;18.650;2022-08-19T12:52:58;37.20;36.60
18309;DHT22;9280;50.276;18.650;2022-08-19T12:55:43;36.70;36.80
18309;DHT22;9280;50.276;18.650;2022-08-19T12:58:30;36.40;36.90
18309;DHT22;9280;50.276;18.650;2022-08-19T13:01:17;36.10;37.90
18309;DHT22;9280;50.276;18.650;2022-08-19T13:04:03;36.70;37.10
18309;DHT22;9280;50.276;18.650;2022-08-19T13:06:49;37.20;36.20
18309;DHT22;9280;50.276;18.650;2022-08-19T13:09:37;38.40;34.80
18309;DHT22;9280;50.276;18.650;2022-08-19T13:12:25;40.20;31.70
18309;DHT22;9280;50.276;18.650;2022-08-19T13:15:12;39.20;32.40
18309;DHT22;9280;50.276;18.650;2022-08-19T13:17:58;39.40;32.50
18309;DHT22;9280;50.276;18.650;2022-08-19T13:20:43;39.50;31.50
18309;DHT22;9280;50.276;18.650;2022-08-19T13:23:29;39.00;32.60
18309;DHT22;9280;50.276;18.650;2022-08-19T13:26:17;40.40;32.90
18309;DHT22;9280;50.276;18.650;2022-08-19T13:29:03;44.20;28.60
18309;DHT22;9280;50.276;18.650;2022-08-19T13:32:06;45.30;25.70
18309;DHT22;9280;50.276;18.650;2022-08-19T13:35:09;44.40;24.50
18309;DHT22;9280;50.276;18.650;2022-08-19T13:37:55;43.70;24.80
18309;DHT22;9280;50.276;18.650;2022-08-19T13:40:41;44.30;25.80
18309;DHT22;9280;50.276;18.650;2022-08-19T13:43:28;46.70;23.70
18309;DHT22;9280;50.276;18.650;2022-08-19T13:46:15;50.40;20.40
18309;DHT22;9280;50.276;18.650;2022-08-19T13:49:01;51.50;18.60
18309;DHT22;9280;50.276;18.650;2022-08-19T13:51:48;50.90;17.80
18309;DHT22;9280;50.276;18.650;2022-08-19T13:54:34;49.70;18.80
18309;DHT22;9280;50.276;18.650;2022-08-19T13:57:20;49.80;18.60
18309;DHT22;9280;50.276;18.650;2022-08-19T14:00:09;50.40;17.70
18309;DHT22;9280;50.276;18.650;2022-08-19T14:02:56;48.30;18.80
18309;DHT22;9280;50.276;18.650;2022-08-19T14:05:42;47.00;19.70
18309;DHT22;9280;50.276;18.650;2022-08-19T14:08:29;45.00;21.30
18309;DHT22;9280;50.276;18.650;2022-08-19T14:11:16;45.30;22.40
18309;DHT22;9280;50.276;18.650;2022-08-19T14:14:02;44.20;22.50
18309;DHT22;9280;50.276;18.650;2022-08-19T14:16:49;44.70;22.10
18309;DHT22;9280;50.276;18.650;2022-08-19T14:19:36;47.20;21.60
18309;DHT22;9280;50.276;18.650;2022-08-19T14:22:21;49.30;19.40
18309;DHT22;9280;50.276;18.650;2022-08-19T14:25:11;50.90;18.10
18309;DHT22;9280;50.276;18.650;2022-08-19T14:27:58;52.20;17.20
18309;DHT22;9280;50.276;18.650;2022-08-19T14:30:44;53.50;16.60
18309;DHT22;9280;50.276;18.650;2022-08-19T14:33:31;54.40;15.50
18309;DHT22;9280;50.276;18.650;2022-08-19T14:36:17;54.90;14.80
18309;DHT22;9280;50.276;18.650;2022-08-19T14:39:05;55.50;14.10
18309;DHT22;9280;50.276;18.650;2022-08-19T14:41:51;55.60;14.00
18309;DHT22;9280;50.276;18.650;2022-08-19T14:44:38;56.00;13.80
18309;DHT22;9280;50.276;18.650;2022-08-19T14:47:23;55.70;13.80
18309;DHT22;9280;50.276;18.650;2022-08-19T14:50:11;55.90;13.60
18309;DHT22;9280;50.276;18.650;2022-08-19T14:52:59;54.20;14.50
18309;DHT22;9280;50.276;18.650;2022-08-19T14:55:46;53.40;14.10
18309;DHT22;9280;50.276;18.650;2022-08-19T14:58:32;51.00;15.00
18309;DHT22;9280;50.276;18.650;2022-08-19T15:01:18;48.00;17.40
18309;DHT22;9280;50.276;18.650;2022-08-19T15:04:05;45.10;19.80
18309;DHT22;9280;50.276;18.650;2022-08-19T15:06:52;42.90;21.70
18309;DHT22;9280;50.276;18.650;2022-08-19T15:09:38;41.50;23.30
18309;DHT22;9280;50.276;18.650;2022-08-19T15:12:26;41.20;24.00
18309;DHT22;9280;50.276;18.650;2022-08-19T15:15:13;41.40;23.60
18309;DHT22;9280;50.276;18.650;2022-08-19T15:18:01;41.60;23.30
18309;DHT22;9280;50.276;18.650;2022-08-19T15:20:49;40.20;24.30
18309;DHT22;9280;50.276;18.650;2022-08-19T15:23:36;39.00;25.20
18309;DHT22;9280;50.276;18.650;2022-08-19T15:26:22;37.70;26.90
18309;DHT22;9280;50.276;18.650;2022-08-19T15:29:09;36.60;28.20
18309;DHT22;9280;50.276;18.650;2022-08-19T15:31:59;35.60;29.60
18309;DHT22;9280;50.276;18.650;2022-08-19T15:34:44;34.70;31.00
18309;DHT22;9280;50.276;18.650;2022-08-19T15:37:33;34.00;32.30
18309;DHT22;9280;50.276;18.650;2022-08-19T15:40:21;33.40;32.80
18309;DHT22;9280;50.276;18.650;2022-08-19T15:43:07;32.90;33.50
18309;DHT22;9280;50.276;18.650;2022-08-19T15:45:53;32.60;33.90
18309;DHT22;9280;50.276;18.650;2022-08-19T15:48:38;32.30;34.40
18309;DHT22;9280;50.276;18.650;2022-08-19T15:51:25;32.00;34.70
18309;DHT22;9280;50.276;18.650;2022-08-19T15:54:13;31.80;35.50
18309;DHT22;9280;50.276;18.650;2022-08-19T15:57:01;31.60;35.90
18309;DHT22;9280;50.276;18.650;2022-08-19T16:00:06;31.40;36.60
18309;DHT22;9280;50.276;18.650;2022-08-19T16:03:15;31.20;37.60
18309;DHT22;9280;50.276;18.650;2022-08-19T16:06:18;31.00;38.60
18309;DHT22;9280;50.276;18.650;2022-08-19T16:09:10;30.80;39.50
18309;DHT22;9280;50.276;18.650;2022-08-19T16:11:57;30.70;40.00
18309;DHT22;9280;50.276;18.650;2022-08-19T16:14:46;30.60;41.10
18309;DHT22;9280;50.276;18.650;2022-08-19T16:17:32;29.60;51.40
18309;DHT22;9280;50.276;18.650;2022-08-19T16:20:19;28.30;57.90
18309;DHT22;9280;50.276;18.650;2022-08-19T16:23:06;27.10;66.70
18309;DHT22;9280;50.276;18.650;2022-08-19T16:25:51;26.30;74.90
18309;DHT22;9280;50.276;18.650;2022-08-19T16:28:37;25.90;85.90
18309;DHT22;9280;50.276;18.650;2022-08-19T16:31:24;25.50;91.70
18309;DHT22;9280;50.276;18.650;2022-08-19T16:34:11;25.30;94.00
18309;DHT22;9280;50.276;18.650;2022-08-19T16:36:57;25.20;96.30
18309;DHT22;9280;50.276;18.650;2022-08-19T16:39:47;25.10;99.20
18309;DHT22;9280;50.276;18.650;2022-08-19T16:42:33;25.00;99.90
18309;DHT22;9280;50.276;18.650;2022-08-19T16:45:19;25.00;99.90
18309;DHT22;9280;50.276;18.650;2022-08-19T16:48:07;24.80;99.90
18309;DHT22;9280;50.276;18.650;2022-08-19T16:50:53;24.80;99.90
18309;DHT22;9280;50.276;18.650;2022-08-19T16:53:40;24.70;99.90
18309;DHT22;9280;50.276;18.650;2022-08-19T16:56:28;24.80;99.90
18309;DHT22;9280;50.276;18.650;2022-08-19T16:59:14;24.80;99.90
18309;DHT22;9280;50.276;18.650;2022-08-19T17:02:00;24.80;99.90
18309;DHT22;9280;50.276;18.650;2022-08-19T17:04:47;24.70;99.90
18309;DHT22;9280;50.276;18.650;2022-08-19T17:07:33;24.40;99.90
18309;DHT22;9280;50.276;18.650;2022-08-19T17:10:18;24.10;99.90
18309;DHT22;9280;50.276;18.650;2022-08-19T17:13:05;23.90;99.90
18309;DHT22;9280;50.276;18.650;2022-08-19T17:15:52;23.70;99.90
18309;DHT22;9280;50.276;18.650;2022-08-19T17:18:37;23.40;99.90
18309;DHT22;9280;50.276;18.650;2022-08-19T17:21:27;23.00;99.90
18309;DHT22;9280;50.276;18.650;2022-08-19T17:24:15;22.70;99.90
18309;DHT22;9280;50.276;18.650;2022-08-19T17:27:00;22.40;99.90
18309;DHT22;9280;50.276;18.650;2022-08-19T17:29:46;21.20;99.90
18309;DHT22;9280;50.276;18.650;2022-08-19T17:32:32;20.30;99.90
